sensor_id;sensor_type;location;lat;lon;timestamp;pressure;altitude;pressure_sealevel;temperature;humidity
51259;BME280;37327;54.254;18.504;2022-09-09T00:00:33;100733.48;;;13.86;66.75
51259;BME280;37327;54.254;18.504;2022-09-09T00:16:54;100728.84;;;13.79;67.17
51259;BME280;37327;54.254;18.504;2022-09-09T00:23:27;100722.78;;;13.77;67.34
51259;BME280;37327;54.254;18.504;2022-09-09T00:29:55;100719.80;;;13.72;67.59
51259;BME280;37327;54.254;18.504;2022-09-09T00:33:01;100721.70;;;13.72;67.64
51259;BME280;37327;54.254;18.504;2022-09-09T00:36:14;100725.88;;;13.74;67.71
51259;BME280;37327;54.254;18.504;2022-09-09T00:42:42;100709.59;;;13.74;67.57
51259;BME280;37327;54.254;18.504;2022-09-09T01:02:21;100710.65;;;13.73;67.56
51259;BME280;37327;54.254;18.504;2022-09-09T01:05:37;100704.16;;;13.74;67.55
51259;BME280;37327;54.254;18.504;2022-09-09T01:08:53;100713.99;;;13.75;67.48
51259;BME280;37327;54.254;18.504;2022-09-09T01:12:12;100708.56;;;13.75;67.43
51259;BME280;37327;54.254;18.504;2022-09-09T01:15:24;100714.83;;;13.76;67.32
51259;BME280;37327;54.254;18.504;2022-09-09T01:18:39;100705.86;;;13.75;67.36
51259;BME280;37327;54.254;18.504;2022-09-09T01:21:59;100708.56;;;13.75;67.42
51259;BME280;37327;54.254;18.504;2022-09-09T01:28:25;100714.38;;;13.72;67.42
51259;BME280;37327;54.254;18.504;2022-09-09T01:31:37;100712.08;;;13.69;67.55
51259;BME280;37327;54.254;18.504;2022-09-09T01:34:42;100714.15;;;13.67;67.65
51259;BME280;37327;54.254;18.504;2022-09-09T01:38:11;100720.59;;;13.66;67.95
51259;BME280;37327;54.254;18.504;2022-09-09T01:41:15;100722.29;;;13.67;68.29
51259;BME280;37327;54.254;18.504;2022-09-09T01:44:20;100718.08;;;13.65;68.31
51259;BME280;37327;54.254;18.504;2022-09-09T01:47:27;100709.11;;;13.64;68.33
51259;BME280;37327;54.254;18.504;2022-09-09T01:50:31;100711.82;;;13.64;68.32
51259;BME280;37327;54.254;18.504;2022-09-09T01:53:35;100710.98;;;13.63;68.42
51259;BME280;37327;54.254;18.504;2022-09-09T02:00:03;100704.70;;;13.63;68.38
51259;BME280;37327;54.254;18.504;2022-09-09T02:06:36;100707.63;;;13.61;68.37
51259;BME280;37327;54.254;18.504;2022-09-09T02:09:44;100710.54;;;13.60;68.52
51259;BME280;37327;54.254;18.504;2022-09-09T02:16:09;100710.35;;;13.61;68.54
51259;BME280;37327;54.254;18.504;2022-09-09T02:19:25;100708.85;;;13.59;68.69
51259;BME280;37327;54.254;18.504;2022-09-09T02:22:35;100708.85;;;13.59;68.79
51259;BME280;37327;54.254;18.504;2022-09-09T02:25:48;100708.85;;;13.59;68.79
51259;BME280;37327;54.254;18.504;2022-09-09T02:29:01;100710.54;;;13.60;68.83
51259;BME280;37327;54.254;18.504;2022-09-09T02:32:15;100709.90;;;13.58;68.97
51259;BME280;37327;54.254;18.504;2022-09-09T02:35:24;100713.63;;;13.57;69.15
51259;BME280;37327;54.254;18.504;2022-09-09T02:38:37;100703.00;;;13.55;69.23
51259;BME280;37327;54.254;18.504;2022-09-09T02:41:48;100703.00;;;13.55;69.39
51259;BME280;37327;54.254;18.504;2022-09-09T02:45:25;100696.52;;;13.56;70.02
51259;BME280;37327;54.254;18.504;2022-09-09T02:48:51;100708.85;;;13.59;70.41
51259;BME280;37327;54.254;18.504;2022-09-09T02:55:13;100715.16;;;13.66;71.23
51259;BME280;37327;54.254;18.504;2022-09-09T02:58:19;100718.52;;;13.68;71.65
51259;BME280;37327;54.254;18.504;2022-09-09T03:01:51;100724.59;;;13.70;73.16
51259;BME280;37327;54.254;18.504;2022-09-09T03:04:59;100720.59;;;13.66;74.54
51259;BME280;37327;54.254;18.504;2022-09-09T03:08:05;100725.77;;;13.61;75.29
51259;BME280;37327;54.254;18.504;2022-09-09T03:11:12;100728.44;;;13.54;76.10
51259;BME280;37327;54.254;18.504;2022-09-09T03:14:27;100739.29;;;13.54;76.06
51259;BME280;37327;54.254;18.504;2022-09-09T03:17:40;100739.24;;;13.48;77.56
51259;BME280;37327;54.254;18.504;2022-09-09T03:20:51;100748.99;;;13.42;79.49
51259;BME280;37327;54.254;18.504;2022-09-09T03:24:00;100750.98;;;13.33;81.34
51259;BME280;37327;54.254;18.504;2022-09-09T03:27:10;100757.74;;;13.22;82.42
51259;BME280;37327;54.254;18.504;2022-09-09T03:30:23;100762.62;;;13.12;83.32
51259;BME280;37327;54.254;18.504;2022-09-09T03:33:31;100768.16;;;13.04;84.16
51259;BME280;37327;54.254;18.504;2022-09-09T03:36:43;100778.95;;;12.97;85.83
51259;BME280;37327;54.254;18.504;2022-09-09T03:39:57;100774.95;;;12.93;87.06
51259;BME280;37327;54.254;18.504;2022-09-09T03:43:17;100781.48;;;12.84;87.34
51259;BME280;37327;54.254;18.504;2022-09-09T03:46:25;100782.90;;;12.80;88.23
51259;BME280;37327;54.254;18.504;2022-09-09T03:49:33;100777.66;;;12.78;88.66
51259;BME280;37327;54.254;18.504;2022-09-09T03:52:47;100770.59;;;12.77;89.59
51259;BME280;37327;54.254;18.504;2022-09-09T03:56:06;100760.48;;;12.71;89.39
51259;BME280;37327;54.254;18.504;2022-09-09T03:59:17;100777.71;;;12.63;89.72
51259;BME280;37327;54.254;18.504;2022-09-09T04:02:50;100766.59;;;12.58;91.37
51259;BME280;37327;54.254;18.504;2022-09-09T04:06:03;100770.13;;;12.59;92.29
51259;BME280;37327;54.254;18.504;2022-09-09T04:09:10;100765.95;;;12.56;92.32
51259;BME280;37327;54.254;18.504;2022-09-09T04:12:25;100763.23;;;12.56;92.63
51259;BME280;37327;54.254;18.504;2022-09-09T04:15:32;100770.72;;;12.54;92.86
51259;BME280;37327;54.254;18.504;2022-09-09T04:18:46;100768.54;;;12.50;92.69
51259;BME280;37327;54.254;18.504;2022-09-09T04:21:59;100775.58;;;12.44;92.84
51259;BME280;37327;54.254;18.504;2022-09-09T04:25:34;100782.58;;;12.38;93.48
51259;BME280;37327;54.254;18.504;2022-09-09T04:28:47;100775.18;;;12.32;94.08
51259;BME280;37327;54.254;18.504;2022-09-09T04:31:53;100774.08;;;12.27;94.13
51259;BME280;37327;54.254;18.504;2022-09-09T04:35:06;100776.13;;;12.24;94.34
51259;BME280;37327;54.254;18.504;2022-09-09T04:38:14;100784.80;;;12.20;94.70
51259;BME280;37327;54.254;18.504;2022-09-09T04:41:44;100775.20;;;12.17;95.25
51259;BME280;37327;54.254;18.504;2022-09-09T04:44:48;100786.37;;;12.14;95.83
51259;BME280;37327;54.254;18.504;2022-09-09T04:47:53;100783.20;;;12.11;96.33
51259;BME280;37327;54.254;18.504;2022-09-09T04:51:03;100778.83;;;12.10;96.35
51259;BME280;37327;54.254;18.504;2022-09-09T04:54:23;100778.34;;;12.06;96.90
51259;BME280;37327;54.254;18.504;2022-09-09T04:57:30;100784.80;;;12.05;96.90
51259;BME280;37327;54.254;18.504;2022-09-09T05:00:44;100789.83;;;11.93;97.29
51259;BME280;37327;54.254;18.504;2022-09-09T05:03:52;100787.79;;;11.87;98.08
51259;BME280;37327;54.254;18.504;2022-09-09T05:07:00;100790.58;;;11.79;98.73
51259;BME280;37327;54.254;18.504;2022-09-09T05:10:09;100784.70;;;11.75;99.12
51259;BME280;37327;54.254;18.504;2022-09-09T05:13:14;100787.13;;;11.70;99.56
51259;BME280;37327;54.254;18.504;2022-09-09T05:16:47;100793.26;;;11.64;100.00
51259;BME280;37327;54.254;18.504;2022-09-09T05:20:05;100794.83;;;11.58;100.00
51259;BME280;37327;54.254;18.504;2022-09-09T05:23:16;100791.64;;;11.55;100.00
51259;BME280;37327;54.254;18.504;2022-09-09T05:26:22;100793.02;;;11.51;100.00
51259;BME280;37327;54.254;18.504;2022-09-09T05:29:29;100794.41;;;11.46;100.00
51259;BME280;37327;54.254;18.504;2022-09-09T05:32:40;100793.09;;;11.42;100.00
51259;BME280;37327;54.254;18.504;2022-09-09T05:36:16;100792.62;;;11.39;100.00
51259;BME280;37327;54.254;18.504;2022-09-09T05:39:27;100790.08;;;11.37;100.00
51259;BME280;37327;54.254;18.504;2022-09-09T05:42:38;100795.83;;;11.34;100.00
51259;BME280;37327;54.254;18.504;2022-09-09T05:45:59;100795.55;;;11.29;100.00
51259;BME280;37327;54.254;18.504;2022-09-09T05:49:07;100801.30;;;11.26;100.00
51259;BME280;37327;54.254;18.504;2022-09-09T05:52:17;100801.30;;;11.26;100.00
51259;BME280;37327;54.254;18.504;2022-09-09T05:55:49;100801.47;;;11.24;100.00
51259;BME280;37327;54.254;18.504;2022-09-09T05:58:56;100800.81;;;11.22;100.00
51259;BME280;37327;54.254;18.504;2022-09-09T06:05:19;100797.28;;;11.22;100.00
51259;BME280;37327;54.254;18.504;2022-09-09T06:08:28;100804.06;;;11.18;100.00
51259;BME280;37327;54.254;18.504;2022-09-09T06:11:47;100807.82;;;11.09;100.00
51259;BME280;37327;54.254;18.504;2022-09-09T06:15:17;100807.88;;;11.00;100.00
51259;BME280;37327;54.254;18.504;2022-09-09T06:18:29;100815.49;;;10.97;100.00
51259;BME280;37327;54.254;18.504;2022-09-09T06:21:38;100816.70;;;10.94;100.00
51259;BME280;37327;54.254;18.504;2022-09-09T06:24:43;100816.32;;;10.97;100.00
51259;BME280;37327;54.254;18.504;2022-09-09T06:27:48;100815.86;;;10.94;100.00
51259;BME280;37327;54.254;18.504;2022-09-09T06:30:59;100814.99;;;10.93;100.00
51259;BME280;37327;54.254;18.504;2022-09-09T06:34:09;100821.43;;;10.92;100.00
51259;BME280;37327;54.254;18.504;2022-09-09T06:37:39;100817.57;;;10.86;100.00
51259;BME280;37327;54.254;18.504;2022-09-09T06:40:43;100816.07;;;10.84;100.00
51259;BME280;37327;54.254;18.504;2022-09-09T06:44:03;100819.95;;;10.81;100.00
51259;BME280;37327;54.254;18.504;2022-09-09T06:47:12;100833.45;;;10.81;100.00
51259;BME280;37327;54.254;18.504;2022-09-09T06:50:20;100834.98;;;10.84;100.00
51259;BME280;37327;54.254;18.504;2022-09-09T06:53:25;100828.91;;;10.82;100.00
51259;BME280;37327;54.254;18.504;2022-09-09T06:56:37;100830.08;;;10.79;100.00
51259;BME280;37327;54.254;18.504;2022-09-09T06:59:48;100835.65;;;10.78;100.00
51259;BME280;37327;54.254;18.504;2022-09-09T07:03:00;100834.31;;;10.82;100.00
51259;BME280;37327;54.254;18.504;2022-09-09T07:06:18;100844.25;;;10.81;100.00
51259;BME280;37327;54.254;18.504;2022-09-09T07:09:29;100839.02;;;10.80;100.00
51259;BME280;37327;54.254;18.504;2022-09-09T07:12:42;100840.89;;;10.79;100.00
51259;BME280;37327;54.254;18.504;2022-09-09T07:15:49;100849.35;;;10.76;100.00
51259;BME280;37327;54.254;18.504;2022-09-09T07:18:57;100837.02;;;10.74;100.00
51259;BME280;37327;54.254;18.504;2022-09-09T07:22:31;100849.52;;;10.75;100.00
51259;BME280;37327;54.254;18.504;2022-09-09T07:25:45;100835.19;;;10.74;100.00
51259;BME280;37327;54.254;18.504;2022-09-09T07:28:54;100842.26;;;10.75;100.00
51259;BME280;37327;54.254;18.504;2022-09-09T07:32:00;100850.18;;;10.77;100.00
51259;BME280;37327;54.254;18.504;2022-09-09T07:35:07;100842.92;;;10.77;100.00
51259;BME280;37327;54.254;18.504;2022-09-09T07:38:12;100847.49;;;10.77;100.00
51259;BME280;37327;54.254;18.504;2022-09-09T07:41:20;100847.98;;;10.80;100.00
51259;BME280;37327;54.254;18.504;2022-09-09T07:44:27;100841.72;;;10.80;100.00
51259;BME280;37327;54.254;18.504;2022-09-09T07:47:40;100855.23;;;10.80;100.00
51259;BME280;37327;54.254;18.504;2022-09-09T07:50:51;100850.02;;;10.78;100.00
51259;BME280;37327;54.254;18.504;2022-09-09T07:54:05;100849.82;;;10.80;100.00
51259;BME280;37327;54.254;18.504;2022-09-09T07:57:12;100850.85;;;10.79;100.00
51259;BME280;37327;54.254;18.504;2022-09-09T08:00:26;100853.89;;;10.76;100.00
51259;BME280;37327;54.254;18.504;2022-09-09T08:03:34;100863.69;;;10.77;100.00
51259;BME280;37327;54.254;18.504;2022-09-09T08:06:55;100858.29;;;10.77;100.00
51259;BME280;37327;54.254;18.504;2022-09-09T08:10:03;100866.56;;;10.75;100.00
51259;BME280;37327;54.254;18.504;2022-09-09T08:13:15;100861.99;;;10.76;100.00
51259;BME280;37327;54.254;18.504;2022-09-09T08:16:27;100865.56;;;10.76;100.00
51259;BME280;37327;54.254;18.504;2022-09-09T08:19:40;100861.66;;;10.79;100.00
51259;BME280;37327;54.254;18.504;2022-09-09T08:22:50;100872.96;;;10.82;100.00
51259;BME280;37327;54.254;18.504;2022-09-09T08:26:04;100873.80;;;10.83;100.00
51259;BME280;37327;54.254;18.504;2022-09-09T08:29:15;100862.66;;;10.86;100.00
51259;BME280;37327;54.254;18.504;2022-09-09T08:32:26;100871.91;;;10.92;100.00
51259;BME280;37327;54.254;18.504;2022-09-09T08:35:54;100875.59;;;10.99;100.00
51259;BME280;37327;54.254;18.504;2022-09-09T08:39:01;100874.59;;;11.00;100.00
51259;BME280;37327;54.254;18.504;2022-09-09T08:42:23;100877.95;;;11.02;100.00
51259;BME280;37327;54.254;18.504;2022-09-09T08:49:01;100882.15;;;11.04;100.00
51259;BME280;37327;54.254;18.504;2022-09-09T08:52:15;100881.14;;;11.05;100.00
51259;BME280;37327;54.254;18.504;2022-09-09T08:55:35;100875.91;;;11.04;100.00
51259;BME280;37327;54.254;18.504;2022-09-09T09:08:44;100883.80;;;11.14;100.00
51259;BME280;37327;54.254;18.504;2022-09-09T09:12:00;100874.00;;;11.13;100.00
51259;BME280;37327;54.254;18.504;2022-09-09T09:15:17;100878.56;;;11.12;100.00
51259;BME280;37327;54.254;18.504;2022-09-09T09:18:25;100876.19;;;11.17;100.00
51259;BME280;37327;54.254;18.504;2022-09-09T09:21:44;100875.16;;;11.18;100.00
51259;BME280;37327;54.254;18.504;2022-09-09T09:24:56;100878.35;;;11.22;100.00
51259;BME280;37327;54.254;18.504;2022-09-09T09:28:22;100879.34;;;11.29;100.00
51259;BME280;37327;54.254;18.504;2022-09-09T09:31:31;100885.70;;;11.36;100.00
51259;BME280;37327;54.254;18.504;2022-09-09T09:34:57;100891.48;;;11.33;100.00
51259;BME280;37327;54.254;18.504;2022-09-09T09:38:17;100887.73;;;11.34;100.00
51259;BME280;37327;54.254;18.504;2022-09-09T09:41:35;100885.70;;;11.36;100.00
51259;BME280;37327;54.254;18.504;2022-09-09T09:44:48;100896.17;;;11.39;100.00
51259;BME280;37327;54.254;18.504;2022-09-09T09:48:14;100892.09;;;11.43;100.00
51259;BME280;37327;54.254;18.504;2022-09-09T09:51:20;100893.06;;;11.51;100.00
51259;BME280;37327;54.254;18.504;2022-09-09T09:54:33;100894.02;;;11.58;100.00
51259;BME280;37327;54.254;18.504;2022-09-09T09:57:42;100891.63;;;11.63;100.00
51259;BME280;37327;54.254;18.504;2022-09-09T10:00:53;100893.67;;;11.61;100.00
51259;BME280;37327;54.254;18.504;2022-09-09T10:04:13;100887.05;;;11.63;100.00
51259;BME280;37327;54.254;18.504;2022-09-09T10:07:23;100880.45;;;11.66;100.00
51259;BME280;37327;54.254;18.504;2022-09-09T10:10:47;100880.75;;;11.71;100.00
51259;BME280;37327;54.254;18.504;2022-09-09T10:14:02;100883.10;;;11.74;100.00
51259;BME280;37327;54.254;18.504;2022-09-09T10:27:29;100889.38;;;11.98;100.00
51259;BME280;37327;54.254;18.504;2022-09-09T10:37:26;100889.52;;;12.19;100.00
51259;BME280;37327;54.254;18.504;2022-09-09T10:40:48;100893.55;;;12.23;100.00
51259;BME280;37327;54.254;18.504;2022-09-09T10:47:38;100896.84;;;12.34;100.00
51259;BME280;37327;54.254;18.504;2022-09-09T10:57:40;100882.10;;;12.36;100.00
51259;BME280;37327;54.254;18.504;2022-09-09T11:00:56;100879.30;;;12.44;100.00
51259;BME280;37327;54.254;18.504;2022-09-09T11:04:22;100885.64;;;12.52;100.00
51259;BME280;37327;54.254;18.504;2022-09-09T11:10:52;100888.94;;;12.62;100.00
51259;BME280;37327;54.254;18.504;2022-09-09T11:14:31;100893.50;;;12.61;100.00
51259;BME280;37327;54.254;18.504;2022-09-09T11:17:42;100895.84;;;12.64;100.00
51259;BME280;37327;54.254;18.504;2022-09-09T11:20:56;100895.48;;;12.68;100.00
51259;BME280;37327;54.254;18.504;2022-09-09T11:27:40;100904.63;;;12.67;100.00
51259;BME280;37327;54.254;18.504;2022-09-09T11:31:03;100897.63;;;12.72;100.00
51259;BME280;37327;54.254;18.504;2022-09-09T11:37:47;100907.24;;;12.75;100.00
51259;BME280;37327;54.254;18.504;2022-09-09T11:41:10;100906.58;;;12.73;100.00
51259;BME280;37327;54.254;18.504;2022-09-09T11:44:28;100898.28;;;12.74;100.00
51259;BME280;37327;54.254;18.504;2022-09-09T11:47:36;100903.70;;;12.74;100.00
51259;BME280;37327;54.254;18.504;2022-09-09T11:51:00;100908.82;;;12.69;100.00
51259;BME280;37327;54.254;18.504;2022-09-09T11:54:49;100910.87;;;12.67;100.00
51259;BME280;37327;54.254;18.504;2022-09-09T11:58:05;100912.01;;;12.73;100.00
51259;BME280;37327;54.254;18.504;2022-09-09T12:07:59;100911.53;;;12.69;100.00
51259;BME280;37327;54.254;18.504;2022-09-09T12:14:36;100905.74;;;12.72;100.00
51259;BME280;37327;54.254;18.504;2022-09-09T12:17:58;100911.64;;;12.76;100.00
51259;BME280;37327;54.254;18.504;2022-09-09T12:24:43;100913.90;;;12.87;100.00
51259;BME280;37327;54.254;18.504;2022-09-09T12:31:31;100914.91;;;12.86;100.00
51259;BME280;37327;54.254;18.504;2022-09-09T12:38:04;100919.58;;;12.92;100.00
51259;BME280;37327;54.254;18.504;2022-09-09T12:41:21;100921.27;;;12.93;100.00
51259;BME280;37327;54.254;18.504;2022-09-09T12:44:36;100919.39;;;12.94;100.00
51259;BME280;37327;54.254;18.504;2022-09-09T12:48:08;100911.63;;;12.91;100.00
51259;BME280;37327;54.254;18.504;2022-09-09T12:51:32;100919.03;;;12.97;100.00
51259;BME280;37327;54.254;18.504;2022-09-09T12:54:48;100919.11;;;13.03;100.00
51259;BME280;37327;54.254;18.504;2022-09-09T12:57:59;100913.98;;;13.09;100.00
51259;BME280;37327;54.254;18.504;2022-09-09T13:01:20;100919.00;;;13.12;100.00
51259;BME280;37327;54.254;18.504;2022-09-09T13:04:34;100919.55;;;13.22;100.00
51259;BME280;37327;54.254;18.504;2022-09-09T13:07:45;100920.15;;;13.32;100.00
51259;BME280;37327;54.254;18.504;2022-09-09T13:11:06;100917.31;;;13.40;100.00
51259;BME280;37327;54.254;18.504;2022-09-09T13:14:30;100908.23;;;13.48;100.00
51259;BME280;37327;54.254;18.504;2022-09-09T13:17:40;100909.99;;;13.56;100.00
51259;BME280;37327;54.254;18.504;2022-09-09T13:21:15;100908.30;;;13.55;100.00
51259;BME280;37327;54.254;18.504;2022-09-09T13:24:36;100906.34;;;13.49;100.00
51259;BME280;37327;54.254;18.504;2022-09-09T13:27:57;100899.63;;;13.45;100.00
51259;BME280;37327;54.254;18.504;2022-09-09T13:34:49;100899.91;;;13.50;100.00
51259;BME280;37327;54.254;18.504;2022-09-09T13:37:59;100895.37;;;13.57;100.00
51259;BME280;37327;54.254;18.504;2022-09-09T13:41:20;100888.29;;;13.56;100.00
51259;BME280;37327;54.254;18.504;2022-09-09T13:44:37;100888.66;;;13.53;100.00
51259;BME280;37327;54.254;18.504;2022-09-09T13:47:53;100890.53;;;13.52;100.00
51259;BME280;37327;54.254;18.504;2022-09-09T13:54:32;100882.15;;;13.69;100.00
51259;BME280;37327;54.254;18.504;2022-09-09T13:57:54;100883.84;;;13.70;100.00
51259;BME280;37327;54.254;18.504;2022-09-09T14:01:13;100877.36;;;13.71;100.00
51259;BME280;37327;54.254;18.504;2022-09-09T14:04:27;100866.91;;;13.68;100.00
51259;BME280;37327;54.254;18.504;2022-09-09T14:07:44;100865.30;;;13.73;100.00
51259;BME280;37327;54.254;18.504;2022-09-09T14:10:56;100863.80;;;13.71;100.00
51259;BME280;37327;54.254;18.504;2022-09-09T14:14:13;100864.89;;;13.76;100.00
51259;BME280;37327;54.254;18.504;2022-09-09T14:17:29;100865.55;;;13.78;100.00
51259;BME280;37327;54.254;18.504;2022-09-09T14:20:35;100863.23;;;13.75;100.00
51259;BME280;37327;54.254;18.504;2022-09-09T14:24:07;100863.80;;;13.71;100.00
51259;BME280;37327;54.254;18.504;2022-09-09T14:27:14;100867.56;;;13.70;100.00
51259;BME280;37327;54.254;18.504;2022-09-09T14:30:20;100876.35;;;13.72;100.00
51259;BME280;37327;54.254;18.504;2022-09-09T14:33:27;100884.76;;;13.77;100.00
51259;BME280;37327;54.254;18.504;2022-09-09T14:36:46;100883.89;;;13.76;100.00
51259;BME280;37327;54.254;18.504;2022-09-09T14:40:00;100880.63;;;13.81;100.00
51259;BME280;37327;54.254;18.504;2022-09-09T14:43:15;100879.57;;;13.82;100.00
51259;BME280;37327;54.254;18.504;2022-09-09T14:46:29;100880.67;;;13.88;100.00
51259;BME280;37327;54.254;18.504;2022-09-09T14:49:41;100888.02;;;13.94;100.00
51259;BME280;37327;54.254;18.504;2022-09-09T14:52:55;100888.21;;;13.92;100.00
51259;BME280;37327;54.254;18.504;2022-09-09T14:59:30;100883.19;;;13.89;100.00
51259;BME280;37327;54.254;18.504;2022-09-09T15:03:02;100876.47;;;13.85;100.00
51259;BME280;37327;54.254;18.504;2022-09-09T15:06:13;100874.33;;;13.80;100.00
51259;BME280;37327;54.254;18.504;2022-09-09T15:09:27;100883.52;;;13.79;100.00
51259;BME280;37327;54.254;18.504;2022-09-09T15:12:38;100881.45;;;13.81;100.00
51259;BME280;37327;54.254;18.504;2022-09-09T15:15:46;100894.19;;;13.81;100.00
51259;BME280;37327;54.254;18.504;2022-09-09T15:18:57;100891.25;;;13.82;100.00
51259;BME280;37327;54.254;18.504;2022-09-09T15:22:10;100898.56;;;13.82;100.00
51259;BME280;37327;54.254;18.504;2022-09-09T15:25:25;100895.02;;;13.81;100.00
51259;BME280;37327;54.254;18.504;2022-09-09T15:28:37;100904.17;;;13.80;100.00
51259;BME280;37327;54.254;18.504;2022-09-09T15:31:50;100893.55;;;13.79;100.00
51259;BME280;37327;54.254;18.504;2022-09-09T15:35:06;100895.39;;;13.78;100.00
51259;BME280;37327;54.254;18.504;2022-09-09T15:38:16;100895.39;;;13.78;100.00
51259;BME280;37327;54.254;18.504;2022-09-09T15:41:25;100894.56;;;13.78;100.00
51259;BME280;37327;54.254;18.504;2022-09-09T15:44:41;100899.98;;;13.78;100.00
51259;BME280;37327;54.254;18.504;2022-09-09T15:47:51;100897.00;;;13.73;100.00
51259;BME280;37327;54.254;18.504;2022-09-09T15:51:06;100896.35;;;13.71;100.00
51259;BME280;37327;54.254;18.504;2022-09-09T15:54:19;100909.09;;;13.70;100.00
51259;BME280;37327;54.254;18.504;2022-09-09T15:57:31;100903.66;;;13.70;100.00
51259;BME280;37327;54.254;18.504;2022-09-09T16:00:43;100903.01;;;13.68;100.00
51259;BME280;37327;54.254;18.504;2022-09-09T16:03:52;100903.42;;;13.65;100.00
51259;BME280;37327;54.254;18.504;2022-09-09T16:07:07;100901.27;;;13.60;100.00
51259;BME280;37327;54.254;18.504;2022-09-09T16:10:39;100901.57;;;13.51;100.00
51259;BME280;37327;54.254;18.504;2022-09-09T16:13:55;100902.34;;;13.45;100.00
51259;BME280;37327;54.254;18.504;2022-09-09T16:17:03;100902.05;;;13.39;100.00
51259;BME280;37327;54.254;18.504;2022-09-09T16:20:17;100903.23;;;13.30;100.00
51259;BME280;37327;54.254;18.504;2022-09-09T16:23:23;100901.89;;;13.26;100.00
51259;BME280;37327;54.254;18.504;2022-09-09T16:26:57;100898.33;;;13.26;100.00
51259;BME280;37327;54.254;18.504;2022-09-09T16:30:10;100902.44;;;13.21;100.00
51259;BME280;37327;54.254;18.504;2022-09-09T16:33:27;100901.80;;;13.19;100.00
51259;BME280;37327;54.254;18.504;2022-09-09T16:36:37;100898.91;;;13.21;100.00
51259;BME280;37327;54.254;18.504;2022-09-09T16:39:57;100900.13;;;13.18;100.00
51259;BME280;37327;54.254;18.504;2022-09-09T16:43:07;100898.25;;;13.19;100.00
51259;BME280;37327;54.254;18.504;2022-09-09T16:46:23;100893.84;;;13.18;100.00
51259;BME280;37327;54.254;18.504;2022-09-09T16:49:35;100904.32;;;13.21;100.00
51259;BME280;37327;54.254;18.504;2022-09-09T16:56:07;100893.13;;;13.24;100.00
51259;BME280;37327;54.254;18.504;2022-09-09T17:02:38;100890.40;;;13.24;100.00
51259;BME280;37327;54.254;18.504;2022-09-09T17:05:49;100892.71;;;13.27;100.00
51259;BME280;37327;54.254;18.504;2022-09-09T17:09:01;100898.14;;;13.27;100.00
51259;BME280;37327;54.254;18.504;2022-09-09T17:12:19;100898.53;;;13.24;100.00
51259;BME280;37327;54.254;18.504;2022-09-09T17:15:47;100902.91;;;13.25;100.00
51259;BME280;37327;54.254;18.504;2022-09-09T17:18:55;100909.63;;;13.29;100.00
51259;BME280;37327;54.254;18.504;2022-09-09T17:22:09;100904.06;;;13.31;100.00
51259;BME280;37327;54.254;18.504;2022-09-09T17:25:25;100919.28;;;13.32;100.00
51259;BME280;37327;54.254;18.504;2022-09-09T17:28:37;100925.57;;;13.32;100.00
51259;BME280;37327;54.254;18.504;2022-09-09T17:31:51;100921.81;;;13.33;100.00
51259;BME280;37327;54.254;18.504;2022-09-09T17:35:02;100923.32;;;13.36;100.00
51259;BME280;37327;54.254;18.504;2022-09-09T17:38:15;100932.30;;;13.36;100.00
51259;BME280;37327;54.254;18.504;2022-09-09T17:41:45;100929.76;;;13.35;100.00
51259;BME280;37327;54.254;18.504;2022-09-09T17:44:52;100936.02;;;13.35;100.00
51259;BME280;37327;54.254;18.504;2022-09-09T17:48:05;100938.73;;;13.35;100.00
51259;BME280;37327;54.254;18.504;2022-09-09T17:51:19;100943.79;;;13.38;100.00
51259;BME280;37327;54.254;18.504;2022-09-09T18:01:16;100958.93;;;13.48;100.00
51259;BME280;37327;54.254;18.504;2022-09-09T18:04:31;100953.11;;;13.51;100.00
51259;BME280;37327;54.254;18.504;2022-09-09T18:10:52;100947.56;;;13.59;100.00
51259;BME280;37327;54.254;18.504;2022-09-09T18:14:01;100949.63;;;13.57;100.00
51259;BME280;37327;54.254;18.504;2022-09-09T18:17:10;100947.95;;;13.56;100.00
51259;BME280;37327;54.254;18.504;2022-09-09T18:20:20;100950.48;;;13.57;100.00
51259;BME280;37327;54.254;18.504;2022-09-09T18:23:31;100949.63;;;13.57;100.00
51259;BME280;37327;54.254;18.504;2022-09-09T18:26:53;100945.25;;;13.56;100.00
51259;BME280;37327;54.254;18.504;2022-09-09T18:30:04;100943.37;;;13.56;100.00
51259;BME280;37327;54.254;18.504;2022-09-09T18:33:20;100946.91;;;13.57;100.00
51259;BME280;37327;54.254;18.504;2022-09-09T18:36:36;100949.63;;;13.57;100.00
51259;BME280;37327;54.254;18.504;2022-09-09T18:39:41;100944.20;;;13.57;100.00
51259;BME280;37327;54.254;18.504;2022-09-09T18:43:13;100947.95;;;13.56;100.00
51259;BME280;37327;54.254;18.504;2022-09-09T18:46:33;100955.05;;;13.57;100.00
51259;BME280;37327;54.254;18.504;2022-09-09T18:49:42;100951.69;;;13.55;100.00
51259;BME280;37327;54.254;18.504;2022-09-09T18:52:55;100953.39;;;13.56;100.00
51259;BME280;37327;54.254;18.504;2022-09-09T18:56:06;100961.52;;;13.56;100.00
51259;BME280;37327;54.254;18.504;2022-09-09T18:59:19;100965.91;;;13.57;100.00
51259;BME280;37327;54.254;18.504;2022-09-09T19:02:29;100965.91;;;13.57;100.00
51259;BME280;37327;54.254;18.504;2022-09-09T19:05:43;100964.24;;;13.56;100.00
51259;BME280;37327;54.254;18.504;2022-09-09T19:08:53;100964.24;;;13.56;100.00